createdAt,value
2018-11-25T00:00:18.337Z,80.83
2018-11-25T00:02:46.890Z,76.33
2018-11-25T00:05:15.465Z,74.43
2018-11-25T00:07:43.950Z,88.77
2018-11-25T00:10:12.523Z,77.27
2018-11-25T00:15:09.992Z,67.27
2018-11-25T00:17:38.479Z,77.87
2018-11-25T00:20:10.355Z,75.97
2018-11-25T00:22:39.071Z,69.47
2018-11-25T00:25:10.924Z,76.75
2018-11-25T00:27:39.471Z,60.57
2018-11-25T00:30:11.704Z,67.67
2018-11-25T00:32:40.217Z,63.43
2018-11-25T00:35:10.071Z,66.00
2018-11-25T00:37:38.596Z,63.90
2018-11-25T00:40:09.070Z,56.10
2018-11-25T00:42:37.587Z,59.73
2018-11-25T00:45:08.778Z,66.70
2018-11-25T00:47:37.262Z,64.00
2018-11-25T00:50:08.115Z,60.27
2018-11-25T00:52:36.681Z,66.20
2018-11-25T00:55:06.216Z,60.10
2018-11-25T00:57:34.690Z,67.30
2018-11-25T01:00:03.667Z,58.80
2018-11-25T01:02:32.225Z,53.47
2018-11-25T01:05:00.806Z,65.73
2018-11-25T01:07:29.362Z,52.10
2018-11-25T01:09:57.885Z,53.37
2018-11-25T01:12:26.435Z,70.00
2018-11-25T01:14:56.199Z,56.80
2018-11-25T01:17:24.704Z,67.43
2018-11-25T01:19:53.227Z,59.00
2018-11-25T01:22:21.779Z,67.27
2018-11-25T01:24:50.290Z,77.83
2018-11-25T01:27:18.802Z,63.13
2018-11-25T01:29:47.842Z,62.30
2018-11-25T01:32:16.431Z,67.95
2018-11-25T01:34:44.917Z,79.63
2018-11-25T01:37:13.456Z,42.77
2018-11-25T01:39:41.999Z,69.83
2018-11-25T01:42:10.526Z,68.12
2018-11-25T01:44:39.068Z,71.60
2018-11-25T01:47:07.586Z,81.03
2018-11-25T01:49:36.233Z,70.60
2018-11-25T01:52:04.971Z,64.97
2018-11-25T01:54:33.614Z,65.17
2018-11-25T01:57:02.156Z,63.83
2018-11-25T01:59:30.650Z,68.77
2018-11-25T02:01:59.147Z,78.30
2018-11-25T02:04:27.638Z,65.17
2018-11-25T02:06:56.127Z,87.17
2018-11-25T02:09:24.627Z,49.97
2018-11-25T02:11:53.218Z,67.77
2018-11-25T02:14:21.714Z,71.20
2018-11-25T02:16:50.265Z,61.97
2018-11-25T02:19:18.934Z,61.67
2018-11-25T02:21:47.547Z,71.97
2018-11-25T02:24:16.079Z,57.00
2018-11-25T02:26:44.561Z,36.47
2018-11-25T02:29:13.127Z,63.40
2018-11-25T02:31:41.656Z,76.40
2018-11-25T02:34:10.290Z,45.40
2018-11-25T02:36:38.798Z,62.27
2018-11-25T02:39:09.114Z,50.90
2018-11-25T02:41:37.686Z,67.70
2018-11-25T02:44:06.262Z,61.17
2018-11-25T02:46:34.767Z,62.77
2018-11-25T02:49:03.336Z,69.20
2018-11-25T02:51:31.843Z,50.13
2018-11-25T02:54:00.434Z,62.30
2018-11-25T02:56:28.913Z,59.20
2018-11-25T02:58:57.470Z,74.30
2018-11-25T03:01:26.047Z,55.10
2018-11-25T03:03:54.566Z,87.77
2018-11-25T03:06:23.868Z,55.47
2018-11-25T03:08:51.708Z,99.10
2018-11-25T03:11:20.301Z,96.00
2018-11-25T03:13:48.807Z,166.60
2018-11-25T03:16:17.318Z,184.77
2018-11-25T03:18:45.831Z,164.03
2018-11-25T03:21:14.435Z,275.87
2018-11-25T03:23:43.002Z,230.87
2018-11-25T03:26:11.806Z,218.47
2018-11-25T03:28:40.290Z,242.63
2018-11-25T03:31:08.832Z,197.43
2018-11-25T03:33:37.417Z,303.57
2018-11-25T03:36:06.224Z,295.03
2018-11-25T03:38:34.714Z,258.87
2018-11-25T03:41:03.267Z,275.00
2018-11-25T03:43:31.783Z,241.27
2018-11-25T03:46:00.370Z,282.60
2018-11-25T03:48:29.155Z,208.83
2018-11-25T03:50:57.656Z,316.97
2018-11-25T03:53:26.155Z,195.00
2018-11-25T03:55:54.699Z,288.17
2018-11-25T03:58:23.379Z,43.77
2018-11-25T04:00:51.872Z,293.43
2018-11-25T04:03:20.402Z,250.47
2018-11-25T04:05:50.370Z,320.57
2018-11-25T04:08:18.958Z,257.10
2018-11-25T04:10:47.467Z,197.20
2018-11-25T04:13:16.040Z,202.17
2018-11-25T04:15:44.623Z,330.47
2018-11-25T04:18:13.194Z,228.87
2018-11-25T04:20:41.727Z,154.30
2018-11-25T04:23:10.204Z,143.40
2018-11-25T04:25:38.811Z,152.17
2018-11-25T04:28:07.480Z,148.13
2018-11-25T04:30:36.051Z,119.53
2018-11-25T04:33:04.668Z,95.47
2018-11-25T04:35:33.186Z,132.23
2018-11-25T04:38:01.684Z,89.80
2018-11-25T04:40:30.998Z,131.27
2018-11-25T04:42:59.500Z,99.23
2018-11-25T04:45:28.024Z,128.37
2018-11-25T04:47:56.555Z,170.23
2018-11-25T04:50:25.091Z,115.67
2018-11-25T04:52:53.755Z,167.73
2018-11-25T04:55:22.313Z,154.27
2018-11-25T04:57:51.975Z,129.03
2018-11-25T05:00:20.782Z,160.67
2018-11-25T05:02:50.127Z,148.13
2018-11-25T05:05:18.677Z,123.70
2018-11-25T05:07:47.271Z,156.03
2018-11-25T05:10:16.689Z,173.47
2018-11-25T05:12:45.231Z,143.27
2018-11-25T05:15:17.983Z,156.57
2018-11-25T05:17:46.472Z,148.87
2018-11-25T05:20:15.757Z,128.60
2018-11-25T05:22:44.290Z,175.70
2018-11-25T05:25:15.859Z,165.53
2018-11-25T05:27:44.439Z,171.73
2018-11-25T05:30:14.345Z,170.43
2018-11-25T05:32:43.067Z,181.00
2018-11-25T05:35:15.002Z,137.83
2018-11-25T05:37:43.634Z,131.43
2018-11-25T05:40:14.100Z,139.00
2018-11-25T05:42:42.911Z,127.13
2018-11-25T05:45:15.330Z,136.13
2018-11-25T05:47:43.982Z,85.50
2018-11-25T05:50:14.372Z,115.63
2018-11-25T05:52:43.132Z,105.87
2018-11-25T05:55:12.938Z,118.73
2018-11-25T05:57:41.698Z,99.27
2018-11-25T06:00:31.880Z,108.87
2018-11-25T06:03:00.907Z,125.97
2018-11-25T06:05:29.419Z,131.20
2018-11-25T06:07:57.943Z,126.07
2018-11-25T06:10:26.459Z,133.63
2018-11-25T06:12:55.018Z,103.43
2018-11-25T06:15:23.569Z,79.83
2018-11-25T06:17:52.090Z,98.47
2018-11-25T06:20:20.705Z,166.10
2018-11-25T06:22:49.299Z,115.20
2018-11-25T06:25:21.583Z,99.80
2018-11-25T06:27:50.151Z,130.50
2018-11-25T06:30:21.271Z,144.67
2018-11-25T06:32:49.822Z,152.23
2018-11-25T06:35:19.496Z,139.93
2018-11-25T06:37:48.587Z,96.70
2018-11-25T06:40:19.187Z,67.33
2018-11-25T06:42:47.875Z,104.87
2018-11-25T06:45:24.515Z,133.27
2018-11-25T06:47:53.798Z,135.53
2018-11-25T06:50:22.395Z,121.67
2018-11-25T06:52:50.909Z,126.37
2018-11-25T06:55:20.122Z,95.20
2018-11-25T06:57:48.712Z,101.20
2018-11-25T07:00:21.521Z,110.47
2018-11-25T07:02:50.104Z,112.67
2018-11-25T07:05:19.788Z,108.83
2018-11-25T07:07:48.307Z,94.70
2018-11-25T07:10:18.842Z,119.00
2018-11-25T07:12:48.324Z,98.47
2018-11-25T07:15:17.891Z,116.13
2018-11-25T07:17:46.563Z,111.60
2018-11-25T07:20:16.147Z,92.50
2018-11-25T07:22:44.669Z,62.60
2018-11-25T07:25:16.245Z,79.67
2018-11-25T07:27:44.934Z,92.60
2018-11-25T07:30:24.940Z,59.63
2018-11-25T07:32:53.625Z,96.37
2018-11-25T07:35:22.991Z,103.47
2018-11-25T07:37:51.530Z,49.90
2018-11-25T07:40:21.134Z,76.23
2018-11-25T07:42:50.125Z,109.47
2018-11-25T07:45:19.759Z,124.63
2018-11-25T07:47:48.273Z,143.63
2018-11-25T07:50:17.754Z,125.93
2018-11-25T07:52:47.407Z,84.23
2018-11-25T07:55:17.971Z,97.93
2018-11-25T07:57:47.134Z,75.97
2018-11-25T08:00:18.646Z,137.30
2018-11-25T08:02:47.248Z,105.00
2018-11-25T08:05:18.063Z,104.00
2018-11-25T08:07:46.645Z,122.40
2018-11-25T08:10:15.978Z,110.80
2018-11-25T08:12:45.129Z,136.67
2018-11-25T08:15:14.442Z,114.17
2018-11-25T08:17:42.977Z,121.50
2018-11-25T08:20:14.568Z,122.20
2018-11-25T08:22:43.094Z,119.03
2018-11-25T08:25:14.444Z,135.87
2018-11-25T08:27:43.069Z,131.80
2018-11-25T08:30:28.522Z,156.90
2018-11-25T08:32:57.014Z,146.23
2018-11-25T08:35:26.339Z,157.17
2018-11-25T08:37:54.895Z,196.60
2018-11-25T08:40:24.711Z,150.20
2018-11-25T08:42:53.449Z,138.17
2018-11-25T08:45:22.044Z,200.60
2018-11-25T08:47:50.558Z,161.37
2018-11-25T08:50:20.008Z,272.53
2018-11-25T08:52:50.759Z,224.40
2018-11-25T08:55:22.250Z,113.10
2018-11-25T08:57:50.739Z,376.87
2018-11-25T09:00:20.645Z,186.25
2018-11-25T09:02:50.009Z,115.67
2018-11-25T09:05:18.535Z,183.80
2018-11-25T09:07:47.181Z,227.00
2018-11-25T09:10:17.258Z,238.13
2018-11-25T09:12:55.168Z,209.93
2018-11-25T09:15:19.749Z,157.67
2018-11-25T09:17:48.289Z,111.33
2018-11-25T09:20:18.837Z,184.93
2018-11-25T09:22:47.348Z,226.57
2018-11-25T09:25:17.193Z,187.57
2018-11-25T09:27:45.670Z,182.53
2018-11-25T09:30:17.516Z,170.87
2018-11-25T09:32:46.183Z,114.03
2018-11-25T09:35:15.580Z,202.30
2018-11-25T09:37:44.188Z,146.33
2018-11-25T09:40:16.627Z,62.40
2018-11-25T09:42:45.190Z,63.73
2018-11-25T09:45:14.700Z,161.80
2018-11-25T09:47:43.700Z,174.07
2018-11-25T09:50:14.382Z,140.57
2018-11-25T09:52:42.936Z,176.23
2018-11-25T09:55:13.530Z,215.07
2018-11-25T09:57:43.322Z,187.73
2018-11-25T10:00:17.992Z,186.73
2018-11-25T10:02:46.649Z,190.50
2018-11-25T10:05:16.254Z,238.33
2018-11-25T10:07:45.382Z,214.07
2018-11-25T10:10:17.047Z,169.97
2018-11-25T10:12:45.589Z,238.40
2018-11-25T10:15:15.947Z,198.23
2018-11-25T10:17:44.533Z,221.27
2018-11-25T10:20:15.886Z,122.23
2018-11-25T10:22:44.703Z,196.40
2018-11-25T10:25:14.267Z,166.80
2018-11-25T10:27:42.834Z,115.43
2018-11-25T10:30:19.690Z,112.50
2018-11-25T10:32:49.267Z,174.47
2018-11-25T10:35:17.746Z,242.10
2018-11-25T10:37:46.264Z,220.77
2018-11-25T10:40:16.767Z,120.43
2018-11-25T10:42:45.230Z,204.33
2018-11-25T10:45:15.846Z,243.03
2018-11-25T10:47:44.398Z,161.50
2018-11-25T10:50:16.863Z,192.77
2018-11-25T10:52:45.435Z,189.37
2018-11-25T10:55:14.868Z,135.68
2018-11-25T10:57:44.178Z,241.73
2018-11-25T11:00:37.392Z,196.60
2018-11-25T11:03:12.505Z,104.57
2018-11-25T11:05:46.283Z,244.10
2018-11-25T11:08:14.933Z,257.30
2018-11-25T11:10:43.427Z,229.27
2018-11-25T11:13:11.973Z,253.83
2018-11-25T11:15:40.459Z,204.70
2018-11-25T11:18:08.976Z,67.93
2018-11-25T11:20:37.621Z,193.40
2018-11-25T11:23:06.654Z,182.43
2018-11-25T11:25:35.170Z,186.00
2018-11-25T11:28:03.735Z,186.17
2018-11-25T11:30:32.293Z,128.40
2018-11-25T11:33:00.843Z,107.13
2018-11-25T11:35:29.398Z,146.97
2018-11-25T11:37:58.129Z,134.53
2018-11-25T11:40:26.631Z,141.90
2018-11-25T11:42:55.118Z,157.10
2018-11-25T11:45:23.833Z,146.63
2018-11-25T11:47:52.316Z,96.17
2018-11-25T11:50:21.999Z,100.07
2018-11-25T11:52:50.684Z,135.43
2018-11-25T11:55:20.365Z,123.58
2018-11-25T11:57:49.117Z,182.17
2018-11-25T12:00:28.822Z,154.77
2018-11-25T12:02:57.338Z,142.80
2018-11-25T12:05:25.836Z,172.70
2018-11-25T12:07:54.352Z,151.17
2018-11-25T12:10:22.829Z,141.23
2018-11-25T12:12:51.728Z,137.77
2018-11-25T12:15:30.841Z,163.00
2018-11-25T12:17:56.843Z,163.17
2018-11-25T12:20:26.242Z,127.43
2018-11-25T12:22:55.487Z,178.17
2018-11-25T12:25:24.024Z,126.13
2018-11-25T12:27:52.856Z,150.63
2018-11-25T12:30:21.375Z,151.47
2018-11-25T12:32:51.031Z,160.83
2018-11-25T12:35:19.729Z,162.80
2018-11-25T12:37:48.241Z,159.37
2018-11-25T12:40:17.938Z,203.70
2018-11-25T12:42:47.706Z,206.07
2018-11-25T12:45:17.050Z,187.97
2018-11-25T12:47:45.638Z,206.40
2018-11-25T12:50:17.995Z,121.63
2018-11-25T12:52:46.724Z,172.70
2018-11-25T12:55:16.383Z,197.68
2018-11-25T12:57:44.869Z,193.93
2018-11-25T13:00:19.991Z,158.50
2018-11-25T13:02:48.487Z,128.00
2018-11-25T13:05:16.983Z,182.63
2018-11-25T13:07:45.634Z,155.47
2018-11-25T13:10:14.182Z,105.57
2018-11-25T13:12:42.715Z,171.27
2018-11-25T13:15:11.286Z,199.63
2018-11-25T13:17:39.811Z,196.40
2018-11-25T13:20:12.354Z,155.83
2018-11-25T13:22:41.258Z,219.97
2018-11-25T13:25:14.773Z,151.93
2018-11-25T13:27:43.411Z,173.57
2018-11-25T13:30:18.195Z,228.63
2018-11-25T13:32:47.219Z,210.97
2018-11-25T13:35:15.788Z,188.63
2018-11-25T13:37:44.268Z,166.70
2018-11-25T13:40:14.000Z,177.57
2018-11-25T13:42:42.504Z,159.23
2018-11-25T13:45:11.407Z,201.40
2018-11-25T13:47:39.994Z,229.83
2018-11-25T13:50:09.689Z,119.47
2018-11-25T13:52:38.209Z,247.17
2018-11-25T13:55:09.616Z,205.90
2018-11-25T13:57:38.140Z,215.90
2018-11-25T14:00:31.594Z,252.20
2018-11-25T14:03:00.237Z,181.80
2018-11-25T14:05:28.817Z,219.67
2018-11-25T14:07:57.289Z,196.13
2018-11-25T14:10:28.580Z,235.13
2018-11-25T14:12:57.086Z,213.63
2018-11-25T14:15:25.920Z,162.50
2018-11-25T14:17:54.535Z,257.10
2018-11-25T14:20:23.034Z,160.50
2018-11-25T14:22:51.588Z,176.07
2018-11-25T14:25:21.210Z,157.53
2018-11-25T14:27:52.738Z,152.17
2018-11-25T14:30:22.975Z,234.50
2018-11-25T14:32:51.507Z,256.27
2018-11-25T14:35:20.164Z,203.17
2018-11-25T14:37:48.631Z,223.87
2018-11-25T14:40:18.490Z,232.93
2018-11-25T14:42:47.044Z,230.40
2018-11-25T14:45:16.687Z,229.10
2018-11-25T14:47:45.174Z,152.87
2018-11-25T14:50:15.768Z,169.73
2018-11-25T14:52:45.242Z,229.37
2018-11-25T14:55:14.694Z,211.53
2018-11-25T14:57:43.162Z,221.90
2018-11-25T15:00:21.048Z,235.30
2018-11-25T15:02:51.051Z,197.97
2018-11-25T15:05:38.933Z,242.83
2018-11-25T15:08:08.446Z,226.83
2018-11-25T15:10:36.940Z,145.47
2018-11-25T15:13:05.873Z,239.60
2018-11-25T15:15:34.391Z,218.13
2018-11-25T15:18:02.863Z,235.20
2018-11-25T15:20:31.803Z,202.67
2018-11-25T15:23:02.130Z,190.47
2018-11-25T15:25:34.431Z,173.83
2018-11-25T15:28:02.939Z,170.00
2018-11-25T15:30:31.469Z,180.97
2018-11-25T15:33:00.058Z,250.07
2018-11-25T15:35:28.603Z,216.80
2018-11-25T15:37:57.186Z,219.30
2018-11-25T15:40:28.767Z,216.73
2018-11-25T15:42:57.346Z,175.93
2018-11-25T15:45:25.959Z,208.43
2018-11-25T15:48:57.274Z,212.77
2018-11-25T15:51:25.756Z,247.67
2018-11-25T15:53:54.234Z,157.43
2018-11-25T15:56:22.778Z,164.43
2018-11-25T15:58:51.300Z,152.40
2018-11-25T16:01:19.803Z,199.63
2018-11-25T16:03:48.416Z,141.83
2018-11-25T16:06:23.971Z,200.27
2018-11-25T16:08:52.458Z,201.70
2018-11-25T16:11:21.155Z,133.37
2018-11-25T16:13:49.658Z,136.47
2018-11-25T16:16:18.146Z,210.10
2018-11-25T16:18:46.814Z,215.80
2018-11-25T16:21:15.272Z,148.60
2018-11-25T16:23:43.787Z,146.47
2018-11-25T16:26:21.696Z,205.30
2018-11-25T16:28:52.082Z,207.33
2018-11-25T16:31:20.580Z,155.43
2018-11-25T16:33:49.270Z,220.27
2018-11-25T16:36:17.795Z,191.70
2018-11-25T16:38:46.292Z,197.10
2018-11-25T16:41:14.885Z,201.77
2018-11-25T16:43:43.371Z,132.63
2018-11-25T16:46:11.905Z,139.77
2018-11-25T16:48:40.398Z,241.03
2018-11-25T16:51:08.909Z,225.70
2018-11-25T16:53:37.414Z,228.27
2018-11-25T16:56:06.046Z,172.27
2018-11-25T16:58:34.568Z,156.07
2018-11-25T17:01:09.580Z,181.00
2018-11-25T17:03:31.843Z,211.57
2018-11-25T17:06:00.335Z,214.50
2018-11-25T17:08:32.757Z,203.83
2018-11-25T17:11:01.905Z,105.73
2018-11-25T17:13:30.016Z,190.83
2018-11-25T17:15:58.585Z,183.40
2018-11-25T17:18:27.094Z,197.47
2018-11-25T17:20:55.600Z,185.23
2018-11-25T17:23:24.126Z,150.33
2018-11-25T17:25:52.614Z,213.73
2018-11-25T17:28:21.202Z,145.60
2018-11-25T17:30:49.708Z,204.50
2018-11-25T17:33:18.202Z,253.00
2018-11-25T17:35:46.730Z,223.77
2018-11-25T17:38:15.193Z,133.80
2018-11-25T17:40:43.759Z,156.23
2018-11-25T17:43:15.175Z,131.83
2018-11-25T17:45:43.736Z,196.40
2018-11-25T17:48:12.226Z,215.60
2018-11-25T17:50:40.731Z,154.77
2018-11-25T17:53:09.638Z,126.57
2018-11-25T17:55:38.125Z,178.83
2018-11-25T17:58:06.734Z,199.70
2018-11-25T18:00:39.150Z,141.05
2018-11-25T18:03:10.515Z,196.77
2018-11-25T18:05:39.084Z,217.43
2018-11-25T18:08:07.819Z,209.00
2018-11-25T18:10:36.355Z,234.50
2018-11-25T18:13:05.092Z,207.60
2018-11-25T18:15:33.670Z,227.70
2018-11-25T18:18:03.747Z,217.00
2018-11-25T18:20:44.379Z,153.33
2018-11-25T18:23:12.881Z,222.83
2018-11-25T18:25:41.479Z,173.05
2018-11-25T18:28:10.099Z,166.63
2018-11-25T18:30:38.659Z,150.43
2018-11-25T18:33:07.158Z,116.30
2018-11-25T18:35:35.718Z,147.67
2018-11-25T18:38:04.276Z,210.53
2018-11-25T18:40:32.863Z,232.33
2018-11-25T18:43:01.356Z,183.90
2018-11-25T18:45:29.918Z,191.47
2018-11-25T18:47:58.506Z,173.33
2018-11-25T18:50:27.040Z,239.57
2018-11-25T18:52:55.673Z,196.37
2018-11-25T18:55:23.047Z,163.17
2018-11-25T18:57:51.509Z,179.47
2018-11-25T19:02:28.496Z,185.70
2018-11-25T19:04:57.015Z,197.03
2018-11-25T19:07:25.535Z,171.03
2018-11-25T19:09:54.101Z,177.07
2018-11-25T19:12:22.629Z,147.30
2018-11-25T19:14:51.098Z,158.90
2018-11-25T19:17:19.659Z,201.27
2018-11-25T19:19:48.163Z,235.33
2018-11-25T19:22:16.708Z,215.17
2018-11-25T19:24:45.202Z,154.67
2018-11-25T19:27:13.775Z,200.00
2018-11-25T19:29:42.340Z,211.87
2018-11-25T19:32:10.907Z,203.23
2018-11-25T19:34:39.424Z,202.20
2018-11-25T19:37:07.914Z,199.17
2018-11-25T19:39:36.497Z,170.50
2018-11-25T19:42:05.385Z,120.03
2018-11-25T19:44:33.939Z,199.43
2018-11-25T19:47:02.422Z,164.50
2018-11-25T19:49:31.028Z,144.33
2018-11-25T19:51:59.600Z,187.17
2018-11-25T19:54:28.104Z,209.73
2018-11-25T19:56:56.604Z,183.90
2018-11-25T19:59:25.136Z,191.67
2018-11-25T20:01:53.631Z,124.80
2018-11-25T20:04:22.110Z,214.13
2018-11-25T20:06:50.632Z,167.87
2018-11-25T20:09:19.338Z,163.57
2018-11-25T20:11:47.862Z,192.00
2018-11-25T20:14:16.434Z,191.17
2018-11-25T20:16:50.110Z,172.70
2018-11-25T20:19:18.598Z,197.47
2018-11-25T20:21:52.248Z,220.13
2018-11-25T20:24:20.787Z,170.10
2018-11-25T20:26:54.432Z,206.50
2018-11-25T20:29:22.995Z,104.97
2018-11-25T20:31:55.765Z,143.70
2018-11-25T20:34:24.380Z,193.30
2018-11-25T20:36:52.932Z,220.50
2018-11-25T20:39:26.765Z,133.70
2018-11-25T20:41:55.268Z,216.20
2018-11-25T20:44:23.740Z,220.67
2018-11-25T20:46:57.572Z,137.03
2018-11-25T20:49:26.082Z,188.17
2018-11-25T20:51:59.940Z,172.57
2018-11-25T20:54:28.451Z,200.27
2018-11-25T20:56:57.066Z,118.20
2018-11-25T20:59:25.568Z,153.63
2018-11-25T21:01:54.130Z,165.53
2018-11-25T21:04:23.047Z,190.17
2018-11-25T21:06:51.611Z,191.53
2018-11-25T21:09:20.195Z,184.10
2018-11-25T21:11:48.714Z,169.53
2018-11-25T21:14:17.234Z,154.77
2018-11-25T21:16:45.697Z,158.20
2018-11-25T21:19:14.299Z,231.33
2018-11-25T21:21:42.791Z,199.40
2018-11-25T21:24:11.275Z,180.97
2018-11-25T21:26:39.735Z,170.03
2018-11-25T21:29:08.263Z,225.00
2018-11-25T21:31:36.771Z,209.93
2018-11-25T21:34:05.367Z,108.27
2018-11-25T21:36:33.853Z,196.87
2018-11-25T21:39:02.331Z,184.87
2018-11-25T21:41:30.820Z,172.27
2018-11-25T21:43:59.355Z,218.17
2018-11-25T21:46:27.878Z,193.03
2018-11-25T21:48:56.370Z,214.13
2018-11-25T21:51:24.874Z,168.87
2018-11-25T21:53:53.402Z,151.53
2018-11-25T21:56:21.912Z,148.03
2018-11-25T21:58:50.457Z,138.63
2018-11-25T22:01:18.970Z,146.97
2018-11-25T22:03:47.486Z,159.17
2018-11-25T22:06:15.970Z,172.33
2018-11-25T22:08:44.543Z,125.83
2018-11-25T22:11:13.043Z,152.17
2018-11-25T22:13:41.544Z,182.97
2018-11-25T22:16:10.057Z,176.53
2018-11-25T22:18:38.574Z,191.97
2018-11-25T22:21:07.167Z,186.30
2018-11-25T22:23:35.622Z,71.63
2018-11-25T22:26:04.096Z,169.20
2018-11-25T22:28:32.582Z,92.70
2018-11-25T22:31:01.064Z,124.23
2018-11-25T22:33:29.584Z,157.93
2018-11-25T22:35:58.102Z,181.47
2018-11-25T22:38:26.694Z,130.27
2018-11-25T22:40:55.356Z,152.00
2018-11-25T22:43:23.870Z,147.10
2018-11-25T22:45:52.350Z,117.10
2018-11-25T22:48:20.850Z,118.63
2018-11-25T22:50:49.375Z,151.70
2018-11-25T22:53:17.867Z,106.73
2018-11-25T22:55:46.386Z,162.73
2018-11-25T22:58:14.903Z,149.47
2018-11-25T23:00:44.168Z,169.80
2018-11-25T23:03:12.685Z,159.80
2018-11-25T23:05:52.366Z,130.20
2018-11-25T23:08:20.858Z,118.23
2018-11-25T23:10:49.423Z,145.27
2018-11-25T23:13:17.981Z,131.53
2018-11-25T23:15:46.498Z,133.27
2018-11-25T23:18:15.011Z,151.23
2018-11-25T23:20:43.571Z,85.97
2018-11-25T23:23:12.113Z,160.53
2018-11-25T23:25:40.598Z,96.33
2018-11-25T23:28:09.121Z,177.20
2018-11-25T23:30:37.618Z,105.80
2018-11-25T23:33:06.252Z,168.33
2018-11-25T23:35:35.170Z,142.93
2018-11-25T23:38:03.694Z,84.77
2018-11-25T23:40:32.191Z,147.62
2018-11-25T23:43:00.759Z,163.17
2018-11-25T23:45:29.334Z,151.43
2018-11-25T23:47:57.968Z,153.40
2018-11-25T23:50:26.435Z,154.33
2018-11-25T23:52:54.909Z,143.93
2018-11-25T23:55:23.418Z,153.90
2018-11-25T23:57:51.951Z,113.20
